createdAt,value
2023-01-22T00:02:23.129Z,91790.45
2023-01-22T00:06:12.366Z,91795.48
2023-01-22T00:10:01.647Z,91799.63
2023-01-22T00:13:49.669Z,91798.64
2023-01-22T00:17:19.000Z,91797.20
2023-01-22T00:21:08.344Z,91795.98
2023-01-22T00:24:57.584Z,91797.55
2023-01-22T00:28:46.834Z,91800.64
2023-01-22T00:32:36.062Z,91806.02
2023-01-22T00:36:23.913Z,91809.66
2023-01-22T00:40:13.111Z,91801.74
2023-01-22T00:44:01.994Z,91794.89
2023-01-22T00:47:51.429Z,91799.05
2023-01-22T00:51:33.847Z,91805.59
2023-01-22T00:55:15.840Z,91805.07
2023-01-22T00:59:05.085Z,91815.49
2023-01-22T01:02:46.734Z,91819.76
2023-01-22T01:06:36.014Z,91826.11
2023-01-22T01:10:25.264Z,91833.58
2023-01-22T01:14:13.012Z,91827.83
2023-01-22T01:17:47.932Z,91827.16
2023-01-22T01:21:37.172Z,91825.79
2023-01-22T01:25:26.412Z,91825.55
2023-01-22T01:29:15.741Z,91817.42
2023-01-22T01:33:05.158Z,91814.90
2023-01-22T01:37:00.136Z,91814.23
2023-01-22T01:40:42.024Z,91810.55
2023-01-22T01:44:49.143Z,91804.05
2023-01-22T01:48:44.216Z,91816.86
2023-01-22T01:52:13.064Z,91813.75
2023-01-22T01:55:56.186Z,91815.84
2023-01-22T01:59:38.182Z,91815.27
2023-01-22T02:03:27.405Z,91818.14
2023-01-22T02:07:16.556Z,91816.44
2023-01-22T02:11:05.843Z,91815.18
2023-01-22T02:15:00.828Z,91812.02
2023-01-22T02:18:44.748Z,91815.67
2023-01-22T02:22:36.764Z,91819.61
2023-01-22T02:26:25.918Z,91811.34
2023-01-22T02:30:15.376Z,91814.63
2023-01-22T02:34:04.750Z,91820.66
2023-01-22T02:37:42.361Z,91824.48
2023-01-22T02:41:31.567Z,91826.31
2023-01-22T02:45:20.897Z,91834.14
2023-01-22T02:49:10.146Z,91839.48
2023-01-22T02:52:59.434Z,91842.34
2023-01-22T02:56:41.477Z,91846.71
2023-01-22T03:00:30.880Z,91861.91
2023-01-22T03:04:20.135Z,91871.48
2023-01-22T03:08:09.502Z,91875.84
2023-01-22T03:11:58.772Z,91875.01
2023-01-22T03:15:49.665Z,91867.81
2023-01-22T03:19:37.183Z,91864.95
2023-01-22T03:23:26.666Z,91866.48
2023-01-22T03:27:14.650Z,91870.06
2023-01-22T03:31:03.954Z,91869.73
2023-01-22T03:34:45.380Z,91864.16
2023-01-22T03:38:24.547Z,91868.52
2023-01-22T03:42:06.285Z,91860.23
2023-01-22T03:45:55.532Z,91858.02
2023-01-22T03:49:44.782Z,91858.98
2023-01-22T03:53:33.908Z,91854.48
2023-01-22T03:57:23.095Z,91853.41
2023-01-22T04:01:12.459Z,91849.63
2023-01-22T04:05:01.673Z,91845.36
2023-01-22T04:08:43.475Z,91843.39
2023-01-22T04:12:32.658Z,91849.45
2023-01-22T04:16:21.627Z,91841.92
2023-01-22T04:20:16.898Z,91840.80
2023-01-22T04:23:58.775Z,91845.61
2023-01-22T04:27:47.980Z,91853.90
2023-01-22T04:31:37.337Z,91855.50
2023-01-22T04:35:41.962Z,91868.70
2023-01-22T04:39:31.196Z,91870.89
2023-01-22T04:43:20.452Z,91879.08
2023-01-22T04:47:09.645Z,91893.45
2023-01-22T04:50:58.976Z,91897.32
2023-01-22T04:54:48.253Z,91905.20
2023-01-22T04:58:37.437Z,91908.09
2023-01-22T05:02:26.894Z,91914.09
2023-01-22T05:06:16.576Z,91926.19
2023-01-22T05:10:05.789Z,91927.89
2023-01-22T05:13:39.918Z,91941.20
2023-01-22T05:17:29.076Z,91942.77
2023-01-22T05:21:18.400Z,91944.14
2023-01-22T05:25:07.659Z,91944.40
2023-01-22T05:28:56.870Z,91936.92
2023-01-22T05:32:44.295Z,91940.28
2023-01-22T05:36:36.349Z,91948.16
2023-01-22T05:40:24.084Z,91951.52
2023-01-22T05:44:13.239Z,91959.46
2023-01-22T05:48:02.685Z,91963.34
2023-01-22T05:51:52.827Z,91971.52
2023-01-22T05:55:42.114Z,91980.02
2023-01-22T05:59:31.363Z,91980.48
2023-01-22T06:03:20.646Z,91987.92
2023-01-22T06:07:09.826Z,91987.71
2023-01-22T06:10:52.317Z,91992.64
2023-01-22T06:14:41.202Z,92012.14
2023-01-22T06:18:27.731Z,92018.52
2023-01-22T06:22:17.026Z,92021.38
2023-01-22T06:25:59.780Z,92026.42
2023-01-22T06:29:48.903Z,92030.27
2023-01-22T06:33:30.791Z,92035.27
2023-01-22T06:37:19.594Z,92042.57
2023-01-22T06:41:08.581Z,92050.66
2023-01-22T06:44:50.714Z,92059.29
2023-01-22T06:48:25.655Z,92064.52
2023-01-22T06:52:14.829Z,92065.50
2023-01-22T06:56:04.161Z,92067.44
2023-01-22T06:59:53.516Z,92070.38
2023-01-22T07:03:42.894Z,92080.46
2023-01-22T07:07:32.039Z,92083.48
2023-01-22T07:11:21.262Z,92086.01
2023-01-22T07:14:52.960Z,92089.79
2023-01-22T07:18:42.490Z,92091.43
2023-01-22T07:22:24.183Z,92091.34
2023-01-22T07:26:06.196Z,92098.44
2023-01-22T07:29:47.632Z,92096.96
2023-01-22T07:33:42.305Z,92095.99
2023-01-22T07:37:23.825Z,92102.58
2023-01-22T07:41:25.147Z,92103.20
2023-01-22T07:45:16.311Z,92105.10
2023-01-22T07:49:03.989Z,92112.31
2023-01-22T07:52:53.203Z,92112.26
2023-01-22T07:56:42.626Z,92115.16
2023-01-22T08:00:24.545Z,92122.19
2023-01-22T08:04:12.326Z,92126.20
2023-01-22T08:08:02.111Z,92128.89
2023-01-22T08:11:43.739Z,92142.35
2023-01-22T08:15:33.074Z,92139.86
2023-01-22T08:19:20.796Z,92142.48
2023-01-22T08:22:52.889Z,92142.79
2023-01-22T08:26:39.307Z,92149.85
2023-01-22T08:30:11.468Z,92155.19
2023-01-22T08:33:56.725Z,92153.16
2023-01-22T08:37:44.998Z,92156.83
2023-01-22T08:41:34.834Z,92160.73
2023-01-22T08:45:23.974Z,92162.91
2023-01-22T08:49:13.157Z,92163.13
2023-01-22T08:53:02.413Z,92166.20
2023-01-22T08:56:50.401Z,92169.95
2023-01-22T09:00:39.729Z,92168.61
2023-01-22T09:04:22.222Z,92167.10
2023-01-22T09:08:05.018Z,92170.02
2023-01-22T09:11:54.666Z,92172.14
2023-01-22T09:15:36.373Z,92176.33
2023-01-22T09:19:24.363Z,92181.06
2023-01-22T09:23:15.493Z,92180.77
2023-01-22T09:27:04.928Z,92186.95
2023-01-22T09:30:54.270Z,92185.97
2023-01-22T09:34:37.070Z,92194.31
2023-01-22T09:38:26.240Z,92203.48
2023-01-22T09:42:21.391Z,92207.16
2023-01-22T09:46:09.174Z,92203.55
2023-01-22T09:49:58.479Z,92192.73
2023-01-22T09:53:47.311Z,92189.59
2023-01-22T09:57:47.139Z,92191.98
2023-01-22T10:01:39.056Z,92188.80
2023-01-22T10:05:18.993Z,92191.14
2023-01-22T10:09:20.421Z,92188.27
2023-01-22T10:13:09.778Z,92187.14
2023-01-22T10:16:52.682Z,92179.90
2023-01-22T10:20:34.934Z,92181.33
2023-01-22T10:24:22.928Z,92181.39
2023-01-22T10:28:14.933Z,92179.28
2023-01-22T10:32:02.579Z,92179.95
2023-01-22T10:36:03.983Z,92177.60
2023-01-22T10:39:30.556Z,92173.17
2023-01-22T10:43:22.654Z,92175.86
2023-01-22T10:47:07.515Z,92181.80
2023-01-22T10:50:50.668Z,92185.64
2023-01-22T10:54:39.865Z,92188.34
2023-01-22T10:58:41.054Z,92186.79
2023-01-22T11:02:13.886Z,92189.21
2023-01-22T11:05:50.649Z,92186.00
2023-01-22T11:09:06.014Z,92183.64
2023-01-22T11:12:05.470Z,92183.99
2023-01-22T11:14:49.374Z,92181.60
2023-01-22T11:17:32.714Z,92181.81
2023-01-22T11:20:41.758Z,92177.68
2023-01-22T11:25:01.327Z,92179.38
2023-01-22T11:28:17.077Z,92180.98
2023-01-22T11:32:04.298Z,92183.73
2023-01-22T11:35:27.820Z,92177.88
2023-01-22T11:39:22.798Z,92177.65
2023-01-22T11:43:30.091Z,92176.19
2023-01-22T11:46:55.358Z,92180.58
2023-01-22T11:50:41.666Z,92180.70
2023-01-22T11:54:38.246Z,92185.14
2023-01-22T11:58:19.738Z,92184.21
2023-01-22T12:02:02.705Z,92186.50
2023-01-22T12:06:03.638Z,92188.36
2023-01-22T12:09:38.011Z,92190.77
2023-01-22T12:13:36.054Z,92184.66
2023-01-22T12:17:26.146Z,92188.91
2023-01-22T12:21:05.196Z,92196.07
2023-01-22T12:25:06.125Z,92195.32
2023-01-22T12:28:55.429Z,92195.05
2023-01-22T12:32:50.598Z,92195.85
2023-01-22T12:36:13.514Z,92206.42
2023-01-22T12:39:48.191Z,92214.48
2023-01-22T12:43:19.420Z,92216.11
2023-01-22T12:47:17.053Z,92219.64
2023-01-22T12:51:06.483Z,92217.95
2023-01-22T12:54:27.145Z,92224.71
2023-01-22T12:58:14.312Z,92229.39
2023-01-22T13:01:32.954Z,92225.63
2023-01-22T13:05:13.948Z,92234.70
2023-01-22T13:09:09.533Z,92237.52
2023-01-22T13:13:07.806Z,92246.91
2023-01-22T13:16:57.758Z,92255.45
2023-01-22T13:20:39.741Z,92255.47
2023-01-22T13:24:18.284Z,92259.15
2023-01-22T13:28:09.950Z,92256.19
2023-01-22T13:31:56.666Z,92256.40
2023-01-22T13:35:28.984Z,92256.27
2023-01-22T13:39:13.603Z,92252.94
2023-01-22T13:43:03.214Z,92258.52
2023-01-22T13:46:55.396Z,92262.45
2023-01-22T13:50:25.787Z,92269.62
2023-01-22T13:54:11.898Z,92271.67
2023-01-22T13:58:01.157Z,92275.42
2023-01-22T14:01:37.942Z,92281.36
2023-01-22T14:05:26.392Z,92285.90
2023-01-22T14:09:21.162Z,92285.02
2023-01-22T14:12:48.306Z,92282.79
2023-01-22T14:16:36.296Z,92280.39
2023-01-22T14:20:18.409Z,92282.74
2023-01-22T14:24:07.829Z,92284.48
2023-01-22T14:27:56.771Z,92289.75
2023-01-22T14:31:46.021Z,92300.05
2023-01-22T14:35:35.281Z,92301.95
2023-01-22T14:39:24.557Z,92304.05
2023-01-22T14:42:55.143Z,92309.63
2023-01-22T14:46:44.426Z,92311.73
2023-01-22T14:50:33.740Z,92317.41
2023-01-22T14:54:22.974Z,92317.86
2023-01-22T14:58:12.262Z,92320.19
2023-01-22T15:02:01.300Z,92322.29
2023-01-22T15:05:50.587Z,92319.05
2023-01-22T15:09:28.763Z,92322.48
2023-01-22T15:13:18.012Z,92327.80
2023-01-22T15:16:58.322Z,92331.98
2023-01-22T15:20:20.001Z,92337.23
2023-01-22T15:24:09.400Z,92344.45
2023-01-22T15:27:51.070Z,92343.39
2023-01-22T15:31:43.441Z,92350.91
2023-01-22T15:35:32.831Z,92351.94
2023-01-22T15:39:22.043Z,92355.52
2023-01-22T15:43:03.659Z,92354.67
2023-01-22T15:46:51.588Z,92363.58
2023-01-22T15:50:41.099Z,92370.45
2023-01-22T15:54:32.992Z,92373.30
2023-01-22T15:58:22.266Z,92373.54
2023-01-22T16:02:11.496Z,92374.54
2023-01-22T16:05:53.623Z,92374.16
2023-01-22T16:09:38.082Z,92374.96
2023-01-22T16:13:20.070Z,92376.38
2023-01-22T16:17:15.058Z,92383.77
2023-01-22T16:20:57.224Z,92385.98
2023-01-22T16:24:46.523Z,92389.70
2023-01-22T16:28:35.728Z,92393.59
2023-01-22T16:32:24.950Z,92399.39
2023-01-22T16:36:14.299Z,92404.38
2023-01-22T16:40:03.517Z,92406.86
2023-01-22T16:43:55.945Z,92413.23
2023-01-22T16:47:47.936Z,92414.94
2023-01-22T16:51:35.758Z,92416.61
2023-01-22T16:55:27.697Z,92418.60
2023-01-22T16:59:16.057Z,92420.02
2023-01-22T17:03:05.274Z,92427.68
2023-01-22T17:07:05.807Z,92427.43
2023-01-22T17:10:55.271Z,92426.39
2023-01-22T17:14:44.564Z,92425.02
2023-01-22T17:18:33.881Z,92428.16
2023-01-22T17:22:09.342Z,92432.02
2023-01-22T17:25:51.684Z,92439.94
2023-01-22T17:29:40.683Z,92442.94
2023-01-22T17:33:30.092Z,92447.77
2023-01-22T17:37:19.302Z,92454.89
2023-01-22T17:41:08.852Z,92451.92
2023-01-22T17:44:58.211Z,92459.05
2023-01-22T17:48:47.375Z,92458.73
2023-01-22T17:52:28.879Z,92465.50
2023-01-22T17:56:18.116Z,92462.58
2023-01-22T18:00:07.371Z,92464.11
2023-01-22T18:03:56.669Z,92466.72
2023-01-22T18:07:45.865Z,92471.00
2023-01-22T18:11:35.198Z,92473.61
2023-01-22T18:15:22.969Z,92476.14
2023-01-22T18:19:12.191Z,92478.11
2023-01-22T18:23:00.747Z,92475.73
2023-01-22T18:26:50.085Z,92475.16
2023-01-22T18:30:37.959Z,92468.78
2023-01-22T18:34:27.453Z,92478.98
2023-01-22T18:38:00.761Z,92481.19
2023-01-22T18:41:52.442Z,92489.48
2023-01-22T18:45:40.317Z,92494.77
2023-01-22T18:49:16.255Z,92494.89
2023-01-22T18:53:04.899Z,92495.74
2023-01-22T18:56:54.110Z,92497.87
2023-01-22T19:00:43.253Z,92499.11
2023-01-22T19:04:31.645Z,92502.65
2023-01-22T19:08:19.613Z,92501.48
2023-01-22T19:11:54.700Z,92509.04
2023-01-22T19:15:42.874Z,92512.73
2023-01-22T19:19:35.081Z,92517.19
2023-01-22T19:23:24.741Z,92526.65
2023-01-22T19:27:06.795Z,92528.28
2023-01-22T19:30:56.153Z,92530.80
2023-01-22T19:34:44.169Z,92543.62
2023-01-22T19:38:11.468Z,92547.73
2023-01-22T19:42:00.729Z,92549.79
2023-01-22T19:45:48.233Z,92547.85
2023-01-22T19:49:30.283Z,92552.14
2023-01-22T19:52:58.764Z,92552.64
2023-01-22T19:56:02.370Z,92549.05
2023-01-22T19:59:31.117Z,92553.55
2023-01-22T20:03:11.212Z,92549.48
2023-01-22T20:07:00.583Z,92548.27
2023-01-22T20:10:49.665Z,92549.44
2023-01-22T20:14:38.954Z,92549.21
2023-01-22T20:18:28.200Z,92555.52
2023-01-22T20:22:17.368Z,92559.77
2023-01-22T20:26:07.103Z,92560.23
2023-01-22T20:29:56.314Z,92557.94
2023-01-22T20:33:45.458Z,92554.66
2023-01-22T20:37:34.779Z,92550.27
2023-01-22T20:41:24.085Z,92550.62
2023-01-22T20:45:05.866Z,92560.77
2023-01-22T20:48:47.855Z,92561.09
2023-01-22T20:52:37.151Z,92561.61
2023-01-22T20:56:26.403Z,92563.80
2023-01-22T21:00:16.601Z,92567.42
2023-01-22T21:04:04.376Z,92572.25
2023-01-22T21:07:53.583Z,92574.85
2023-01-22T21:11:26.632Z,92576.76
2023-01-22T21:15:16.849Z,92579.77
2023-01-22T21:19:06.139Z,92578.73
2023-01-22T21:22:55.391Z,92579.45
2023-01-22T21:26:44.695Z,92578.89
2023-01-22T21:30:32.770Z,92577.39
2023-01-22T21:34:16.138Z,92581.30
2023-01-22T21:38:03.699Z,92575.89
2023-01-22T21:41:52.604Z,92580.30
2023-01-22T21:45:39.772Z,92579.17
2023-01-22T21:49:37.941Z,92579.35
2023-01-22T21:53:27.015Z,92579.60
2023-01-22T21:57:16.209Z,92579.76
2023-01-22T22:01:05.192Z,92577.70
2023-01-22T22:04:54.482Z,92573.23
2023-01-22T22:08:43.755Z,92575.00
2023-01-22T22:12:31.849Z,92573.61
2023-01-22T22:16:20.791Z,92577.73
2023-01-22T22:20:10.048Z,92571.29
2023-01-22T22:23:52.002Z,92563.80
2023-01-22T22:27:42.253Z,92561.92
2023-01-22T22:31:11.842Z,92557.99
2023-01-22T22:35:01.068Z,92559.34
2023-01-22T22:38:50.350Z,92557.46
2023-01-22T22:42:38.130Z,92563.45
2023-01-22T22:46:10.963Z,92563.02
2023-01-22T22:50:00.187Z,92567.92
2023-01-22T22:53:49.508Z,92566.66
2023-01-22T22:57:38.902Z,92567.98
2023-01-22T23:01:28.071Z,92569.11
2023-01-22T23:05:17.289Z,92567.73
2023-01-22T23:08:59.854Z,92568.92
2023-01-22T23:12:49.075Z,92572.03
2023-01-22T23:16:33.032Z,92574.67
2023-01-22T23:20:22.352Z,92577.70
2023-01-22T23:24:04.241Z,92579.96
2023-01-22T23:27:53.399Z,92582.29
2023-01-22T23:31:35.140Z,92585.52
2023-01-22T23:35:24.532Z,92592.71
2023-01-22T23:39:06.473Z,92594.52
2023-01-22T23:42:55.696Z,92596.26
2023-01-22T23:46:48.172Z,92598.69
2023-01-22T23:50:37.423Z,92603.48
2023-01-22T23:54:26.659Z,92603.77
2023-01-22T23:58:16.020Z,92609.06
